Terminal Aerodrome Forecast
Issued by NWS

Home | Current Version | Previous Version | Text Only | Print | Product List | Glossary On
Versions: 1 2 3 4 5 6 7 8 9 10 11 12
000
FTUS42 TJSJ 291100
TAFKPK
TAF
TKPK 291124Z 2912/3012 08007KT P6SM FEW022
     FM291600 07010KT P6SM VCSH SCT020 SCT035
     FM292100 05008KT P6SM FEW020
      AMD NOT SKED 3002/3011=

USA.gov is the U.S. government's official web portal to all federal, state and local government web resources and services.